createdAt,value
2019-01-13T00:02:02.820Z,13.33
2019-01-13T00:07:26.722Z,12.07
2019-01-13T00:12:51.283Z,12.67
2019-01-13T00:17:54.994Z,12.77
2019-01-13T00:23:18.304Z,13.30
2019-01-13T00:28:22.150Z,12.43
2019-01-13T00:33:25.955Z,14.33
2019-01-13T00:38:49.314Z,14.57
2019-01-13T00:44:12.646Z,14.53
2019-01-13T00:49:35.992Z,14.40
2019-01-13T00:54:39.699Z,14.98
2019-01-13T00:59:43.446Z,15.80
2019-01-13T01:04:47.189Z,14.43
2019-01-13T01:10:11.462Z,14.80
2019-01-13T01:15:34.843Z,15.20
2019-01-13T01:20:38.676Z,14.83
2019-01-13T01:25:42.396Z,15.20
2019-01-13T01:36:14.951Z,15.93
2019-01-13T01:41:18.668Z,16.03
2019-01-13T01:52:11.017Z,17.10
2019-01-13T01:57:14.853Z,18.27
2019-01-13T02:02:18.598Z,20.00
2019-01-13T02:07:22.404Z,20.00
2019-01-13T02:12:26.185Z,19.63
2019-01-13T02:17:29.973Z,20.07
2019-01-13T02:22:33.797Z,20.12
2019-01-13T02:27:37.538Z,20.57
2019-01-13T02:32:41.244Z,20.83
2019-01-13T02:37:45.067Z,21.47
2019-01-13T02:42:48.876Z,21.13
2019-01-13T02:47:52.710Z,21.53
2019-01-13T02:52:56.440Z,22.80
2019-01-13T02:58:00.148Z,23.53
2019-01-13T03:03:04.036Z,21.93
2019-01-13T03:08:07.789Z,22.00
2019-01-13T03:13:31.105Z,21.30
2019-01-13T03:18:34.903Z,21.00
2019-01-13T03:23:38.667Z,21.97
2019-01-13T03:29:01.946Z,22.20
2019-01-13T03:34:05.676Z,23.60
2019-01-13T03:39:09.375Z,22.47
2019-01-13T03:44:13.151Z,23.37
2019-01-13T03:49:16.836Z,22.57
2019-01-13T03:54:20.555Z,22.77
2019-01-13T04:05:12.365Z,23.03
2019-01-13T04:10:16.387Z,22.13
2019-01-13T04:15:39.218Z,22.27
2019-01-13T04:20:42.940Z,23.27
2019-01-13T04:26:06.293Z,23.03
2019-01-13T04:31:10.087Z,23.03
2019-01-13T04:36:13.999Z,22.27
2019-01-13T04:41:37.316Z,22.90
2019-01-13T04:46:41.055Z,22.37
2019-01-13T04:51:44.832Z,24.63
2019-01-13T04:56:48.668Z,24.83
2019-01-13T05:01:52.424Z,26.53
2019-01-13T05:06:56.114Z,26.40
2019-01-13T05:12:19.476Z,27.77
2019-01-13T05:17:42.779Z,26.80
2019-01-13T05:22:48.272Z,28.27
2019-01-13T05:27:52.107Z,27.53
2019-01-13T05:33:15.419Z,27.40
2019-01-13T05:38:19.120Z,27.90
2019-01-13T05:43:22.879Z,27.30
2019-01-13T05:48:26.737Z,26.50
2019-01-13T05:53:30.651Z,26.37
2019-01-13T05:58:34.347Z,27.40
2019-01-13T06:03:38.023Z,23.47
2019-01-13T06:08:41.759Z,22.00
2019-01-13T06:13:45.495Z,22.87
2019-01-13T06:24:14.338Z,19.27
2019-01-13T06:29:18.134Z,17.97
2019-01-13T06:34:41.444Z,17.45
2019-01-13T06:39:45.314Z,16.13
2019-01-13T06:44:49.118Z,16.50
2019-01-13T06:49:52.847Z,16.37
2019-01-13T06:54:56.618Z,16.07
2019-01-13T07:00:00.337Z,15.33
2019-01-13T07:05:05.905Z,13.57
2019-01-13T07:10:09.842Z,12.40
2019-01-13T07:15:14.242Z,11.80
2019-01-13T07:20:18.824Z,10.60
2019-01-13T07:25:22.519Z,9.67
2019-01-13T07:30:27.322Z,9.57
2019-01-13T07:35:31.014Z,8.57
2019-01-13T07:40:36.499Z,8.33
2019-01-13T07:45:40.616Z,8.20
2019-01-13T07:50:44.394Z,7.80
2019-01-13T07:55:48.185Z,7.60
2019-01-13T08:00:51.935Z,9.20
2019-01-13T08:05:55.654Z,9.90
2019-01-13T08:10:59.368Z,9.77
2019-01-13T08:16:03.066Z,10.43
2019-01-13T08:21:06.779Z,11.73
2019-01-13T08:26:10.483Z,11.93
2019-01-13T08:31:14.280Z,12.80
2019-01-13T08:36:18.028Z,14.20
2019-01-13T08:41:21.784Z,13.80
2019-01-13T08:46:25.592Z,14.23
2019-01-13T08:51:29.333Z,13.73
2019-01-13T08:56:33.025Z,13.53
2019-01-13T09:01:36.859Z,11.93
2019-01-13T09:06:40.648Z,11.43
2019-01-13T09:11:44.781Z,11.60
2019-01-13T09:16:48.531Z,10.80
2019-01-13T09:21:52.353Z,9.27
2019-01-13T09:26:56.156Z,8.27
2019-01-13T09:31:59.943Z,8.97
2019-01-13T09:37:03.771Z,8.53
2019-01-13T09:42:07.489Z,7.07
2019-01-13T09:47:12.155Z,7.00
2019-01-13T09:52:16.024Z,8.03
2019-01-13T09:57:19.760Z,7.23
2019-01-13T10:02:23.477Z,7.07
2019-01-13T10:07:27.187Z,7.57
2019-01-13T10:12:30.870Z,7.23
2019-01-13T10:17:34.615Z,7.10
2019-01-13T10:22:38.315Z,7.87
2019-01-13T10:27:42.072Z,7.93
2019-01-13T10:32:46.792Z,9.57
2019-01-13T10:37:51.637Z,14.27
2019-01-13T10:42:55.502Z,10.13
2019-01-13T10:47:59.671Z,7.00
2019-01-13T10:53:04.750Z,6.90
2019-01-13T10:58:08.486Z,7.87
2019-01-13T11:03:12.206Z,7.17
2019-01-13T11:08:16.016Z,6.43
2019-01-13T11:13:19.737Z,6.27
2019-01-13T11:18:23.450Z,6.90
2019-01-13T11:23:27.260Z,6.07
2019-01-13T11:28:30.989Z,9.33
2019-01-13T11:33:34.748Z,5.47
2019-01-13T11:38:38.584Z,5.60
2019-01-13T11:43:42.327Z,5.13
2019-01-13T11:48:46.044Z,5.43
2019-01-13T11:53:49.849Z,4.93
2019-01-13T11:58:53.559Z,5.27
2019-01-13T12:03:57.570Z,5.70
2019-01-13T12:09:01.267Z,7.63
2019-01-13T12:14:05.117Z,9.20
2019-01-13T12:19:08.940Z,6.80
2019-01-13T12:24:12.682Z,5.37
2019-01-13T12:29:16.558Z,5.70
2019-01-13T12:34:20.374Z,5.47
2019-01-13T12:39:24.185Z,5.97
2019-01-13T12:44:27.948Z,5.67
2019-01-13T12:49:31.670Z,6.13
2019-01-13T12:54:35.373Z,5.30
2019-01-13T12:59:39.080Z,6.37
2019-01-13T13:04:42.786Z,8.73
2019-01-13T13:09:46.466Z,8.17
2019-01-13T13:14:50.290Z,9.33
2019-01-13T13:19:54.006Z,4.63
2019-01-13T13:24:57.767Z,4.70
2019-01-13T13:30:01.581Z,5.20
2019-01-13T13:35:06.149Z,5.17
2019-01-13T13:40:10.669Z,4.30
2019-01-13T13:45:14.834Z,4.80
2019-01-13T13:50:19.768Z,5.43
2019-01-13T13:55:23.542Z,5.73
2019-01-13T14:00:28.575Z,7.00
2019-01-13T14:05:32.324Z,7.10
2019-01-13T14:10:37.131Z,11.80
2019-01-13T14:15:40.833Z,8.67
2019-01-13T14:20:44.607Z,6.97
2019-01-13T14:25:48.280Z,6.20
2019-01-13T14:30:51.995Z,6.40
2019-01-13T14:35:55.816Z,6.67
2019-01-13T14:40:59.582Z,6.37
2019-01-13T14:46:04.006Z,6.70
2019-01-13T14:51:07.747Z,6.07
2019-01-13T14:56:11.429Z,5.97
2019-01-13T15:01:15.130Z,6.17
2019-01-13T15:06:18.802Z,5.50
2019-01-13T15:11:22.648Z,5.83
2019-01-13T15:16:26.463Z,6.03
2019-01-13T15:21:30.212Z,7.57
2019-01-13T15:26:33.953Z,6.40
2019-01-13T15:31:37.663Z,6.00
2019-01-13T15:36:41.350Z,6.90
2019-01-13T15:41:45.262Z,7.10
2019-01-13T15:46:48.972Z,5.50
2019-01-13T15:51:52.694Z,5.90
2019-01-13T15:56:56.445Z,5.73
2019-01-13T16:02:00.122Z,6.13
2019-01-13T16:07:04.024Z,6.70
2019-01-13T16:12:07.781Z,5.67
2019-01-13T16:17:11.533Z,5.27
2019-01-13T16:22:15.360Z,5.40
2019-01-13T16:27:19.082Z,5.80
2019-01-13T16:32:22.977Z,5.40
2019-01-13T16:37:26.707Z,4.90
2019-01-13T16:42:30.478Z,5.70
2019-01-13T16:47:34.203Z,5.40
2019-01-13T16:52:38.068Z,4.77
2019-01-13T16:57:41.851Z,5.90
2019-01-13T17:02:45.756Z,6.60
2019-01-13T17:07:49.537Z,6.60
2019-01-13T17:12:53.357Z,7.73
2019-01-13T17:17:57.163Z,8.70
2019-01-13T17:23:00.874Z,7.50
2019-01-13T17:28:04.616Z,5.20
2019-01-13T17:33:08.364Z,5.17
2019-01-13T17:38:12.155Z,4.63
2019-01-13T17:43:16.115Z,4.97
2019-01-13T17:48:19.854Z,6.37
2019-01-13T17:53:23.658Z,6.40
2019-01-13T17:58:27.358Z,5.43
2019-01-13T18:03:36.106Z,5.70
2019-01-13T18:08:39.974Z,4.90
2019-01-13T18:13:43.703Z,5.03
2019-01-13T18:18:47.463Z,4.87
2019-01-13T18:23:51.185Z,7.80
2019-01-13T18:28:54.921Z,5.20
2019-01-13T18:33:58.641Z,4.23
2019-01-13T18:39:02.545Z,3.60
2019-01-13T18:44:06.291Z,3.77
2019-01-13T18:49:10.181Z,4.83
2019-01-13T18:54:13.892Z,3.60
2019-01-13T18:59:17.629Z,3.47
2019-01-13T19:04:21.484Z,2.80
2019-01-13T19:09:25.249Z,1.80
2019-01-13T19:14:48.077Z,2.47
2019-01-13T19:19:52.780Z,2.33
2019-01-13T19:24:58.065Z,2.93
2019-01-13T19:30:01.781Z,2.80
2019-01-13T19:35:05.870Z,3.27
2019-01-13T19:40:13.784Z,3.43
2019-01-13T19:45:18.163Z,3.73
2019-01-13T19:50:22.930Z,3.63
2019-01-13T19:55:26.646Z,4.10
2019-01-13T20:00:39.573Z,4.03
2019-01-13T20:05:43.346Z,4.30
2019-01-13T20:10:47.085Z,3.20
2019-01-13T20:15:50.799Z,3.73
2019-01-13T20:20:54.622Z,4.03
2019-01-13T20:25:58.328Z,3.90
2019-01-13T20:31:02.111Z,4.03
2019-01-13T20:36:05.939Z,4.60
2019-01-13T20:41:09.744Z,3.43
2019-01-13T20:46:13.634Z,3.67
2019-01-13T20:51:17.382Z,4.57
2019-01-13T20:56:21.107Z,4.23
2019-01-13T21:01:24.878Z,4.07
2019-01-13T21:06:29.886Z,4.40
2019-01-13T21:11:33.931Z,4.63
2019-01-13T21:16:37.704Z,3.77
2019-01-13T21:21:41.474Z,3.57
2019-01-13T21:26:45.193Z,4.47
2019-01-13T21:31:49.005Z,4.53
2019-01-13T21:36:52.696Z,4.30
2019-01-13T21:41:56.478Z,4.03
2019-01-13T21:47:00.197Z,4.87
2019-01-13T21:52:04.023Z,4.90
2019-01-13T21:57:07.711Z,4.80
2019-01-13T22:02:11.462Z,5.13
2019-01-13T22:07:16.046Z,4.47
2019-01-13T22:12:19.833Z,4.60
2019-01-13T22:17:23.562Z,5.03
2019-01-13T22:22:27.279Z,4.77
2019-01-13T22:27:31.087Z,5.00
2019-01-13T22:32:34.807Z,5.47
2019-01-13T22:37:38.504Z,4.70
2019-01-13T22:42:42.336Z,4.63
2019-01-13T22:47:46.113Z,5.07
2019-01-13T22:52:49.843Z,5.10
2019-01-13T22:57:53.594Z,4.57
2019-01-13T23:02:57.310Z,5.97
2019-01-13T23:08:01.008Z,4.47
2019-01-13T23:13:04.907Z,5.10
2019-01-13T23:18:08.666Z,4.90
2019-01-13T23:23:12.441Z,4.80
2019-01-13T23:28:16.133Z,4.63
2019-01-13T23:33:19.936Z,4.87
2019-01-13T23:38:23.623Z,4.73
2019-01-13T23:43:27.334Z,5.10
2019-01-13T23:48:31.046Z,4.93
2019-01-13T23:53:34.730Z,4.87
2019-01-13T23:58:38.448Z,4.30
